createdAt,value
2019-05-01T00:02:10.707Z,10.74
2019-05-01T00:04:52.303Z,10.68
2019-05-01T00:07:25.015Z,10.74
2019-05-01T00:09:56.283Z,10.65
2019-05-01T00:12:27.136Z,10.61
2019-05-01T00:14:58.388Z,10.66
2019-05-01T00:17:29.460Z,10.69
2019-05-01T00:20:00.403Z,10.74
2019-05-01T00:22:31.280Z,10.67
2019-05-01T00:25:02.340Z,10.63
2019-05-01T00:27:33.296Z,10.69
2019-05-01T00:30:08.089Z,10.78
2019-05-01T00:32:40.122Z,10.67
2019-05-01T00:35:10.878Z,10.68
2019-05-01T00:37:41.629Z,10.68
2019-05-01T00:40:12.792Z,10.69
2019-05-01T00:42:43.651Z,10.76
2019-05-01T00:45:14.591Z,10.79
2019-05-01T00:47:45.565Z,10.78
2019-05-01T00:50:16.505Z,10.82
2019-05-01T00:52:47.483Z,10.78
2019-05-01T00:55:36.645Z,10.80
2019-05-01T00:58:18.242Z,10.88
2019-05-01T01:00:53.598Z,10.90
2019-05-01T01:03:24.657Z,10.89
2019-05-01T01:05:55.511Z,10.89
2019-05-01T01:08:26.577Z,10.82
2019-05-01T01:10:57.536Z,10.89
2019-05-01T01:13:28.678Z,10.91
2019-05-01T01:15:59.755Z,10.87
2019-05-01T01:18:30.816Z,10.86
2019-05-01T01:21:01.776Z,10.89
2019-05-01T01:23:33.448Z,10.89
2019-05-01T01:26:04.099Z,10.91
2019-05-01T01:28:35.159Z,10.97
2019-05-01T01:31:05.999Z,10.97
2019-05-01T01:33:37.996Z,10.90
2019-05-01T01:36:08.649Z,10.92
2019-05-01T01:38:39.710Z,10.88
2019-05-01T01:41:10.771Z,10.86
2019-05-01T01:43:56.252Z,10.94
2019-05-01T01:46:34.883Z,10.90
2019-05-01T01:49:05.940Z,10.91
2019-05-01T01:51:36.780Z,10.87
2019-05-01T01:54:08.064Z,10.93
2019-05-01T01:56:39.071Z,10.99
2019-05-01T01:59:10.190Z,11.00
2019-05-01T02:01:48.405Z,10.97
2019-05-01T02:04:21.099Z,10.99
2019-05-01T02:06:52.165Z,10.99
2019-05-01T02:09:23.122Z,11.04
2019-05-01T02:11:54.181Z,11.06
2019-05-01T02:14:25.139Z,11.04
2019-05-01T02:16:55.994Z,11.10
2019-05-01T02:19:27.054Z,11.12
2019-05-01T02:21:57.893Z,11.10
2019-05-01T02:24:28.975Z,11.16
2019-05-01T02:27:04.433Z,11.21
2019-05-01T02:29:37.539Z,11.18
2019-05-01T02:32:08.906Z,11.17
2019-05-01T02:34:43.230Z,11.24
2019-05-01T02:37:16.032Z,11.15
2019-05-01T02:39:49.228Z,11.17
2019-05-01T02:42:22.557Z,11.19
2019-05-01T02:44:55.237Z,11.14
2019-05-01T02:47:29.487Z,11.18
2019-05-01T02:50:03.432Z,11.21
2019-05-01T02:52:37.640Z,11.29
2019-05-01T02:55:11.774Z,11.28
2019-05-01T02:57:43.545Z,11.31
2019-05-01T03:00:14.780Z,11.31
2019-05-01T03:02:45.885Z,11.40
2019-05-01T03:05:16.627Z,11.33
2019-05-01T03:07:47.584Z,11.29
2019-05-01T03:10:18.744Z,11.34
2019-05-01T03:12:52.459Z,11.27
2019-05-01T03:15:24.285Z,11.35
2019-05-01T03:17:57.246Z,11.31
2019-05-01T03:20:42.357Z,11.30
2019-05-01T03:23:15.427Z,11.33
2019-05-01T03:25:47.000Z,11.37
2019-05-01T03:28:18.052Z,11.59
2019-05-01T03:30:49.215Z,11.59
2019-05-01T03:33:19.853Z,11.49
2019-05-01T03:35:51.239Z,11.38
2019-05-01T03:38:22.191Z,11.40
2019-05-01T03:40:53.263Z,11.41
2019-05-01T03:43:24.205Z,11.39
2019-05-01T03:45:56.014Z,11.30
2019-05-01T03:48:27.055Z,11.37
2019-05-01T03:50:58.116Z,11.43
2019-05-01T03:53:29.892Z,11.43
2019-05-01T03:56:01.781Z,11.49
2019-05-01T03:58:33.327Z,11.52
2019-05-01T04:01:14.927Z,11.56
2019-05-01T04:03:53.566Z,11.64
2019-05-01T04:06:24.529Z,11.62
2019-05-01T04:08:56.118Z,11.55
2019-05-01T04:11:26.832Z,11.58
2019-05-01T04:13:58.515Z,11.58
2019-05-01T04:16:29.488Z,11.56
2019-05-01T04:19:00.442Z,11.63
2019-05-01T04:21:32.901Z,11.68
2019-05-01T04:24:04.505Z,11.68
2019-05-01T04:26:35.272Z,11.75
2019-05-01T04:29:16.754Z,11.94
2019-05-01T04:32:04.407Z,11.81
2019-05-01T04:34:46.386Z,11.90
2019-05-01T04:37:18.776Z,11.98
2019-05-01T04:39:49.938Z,12.07
2019-05-01T04:42:20.776Z,12.14
2019-05-01T04:44:51.856Z,12.22
2019-05-01T04:47:23.235Z,12.27
2019-05-01T04:49:54.489Z,12.38
2019-05-01T04:52:25.608Z,12.45
2019-05-01T04:54:56.611Z,12.41
2019-05-01T04:57:27.652Z,12.39
2019-05-01T04:59:59.651Z,12.65
2019-05-01T05:02:32.639Z,12.77
2019-05-01T05:05:03.816Z,12.83
2019-05-01T05:07:34.662Z,12.82
2019-05-01T05:10:06.640Z,12.83
2019-05-01T05:12:39.261Z,13.06
2019-05-01T05:15:26.979Z,13.35
2019-05-01T05:17:58.140Z,13.36
2019-05-01T05:20:29.288Z,13.32
2019-05-01T05:23:00.809Z,13.27
2019-05-01T05:25:31.837Z,13.34
2019-05-01T05:28:02.800Z,13.34
2019-05-01T05:30:36.399Z,13.26
2019-05-01T05:33:18.041Z,13.23
2019-05-01T05:35:43.751Z,13.28
2019-05-01T05:38:21.459Z,13.48
2019-05-01T05:40:52.965Z,13.50
2019-05-01T05:43:24.989Z,13.53
2019-05-01T05:45:56.380Z,13.55
2019-05-01T05:48:27.735Z,13.67
2019-05-01T05:51:10.875Z,13.78
2019-05-01T05:53:50.837Z,13.82
2019-05-01T05:56:25.986Z,13.83
2019-05-01T05:59:00.205Z,13.88
2019-05-01T06:01:52.654Z,13.92
2019-05-01T06:04:30.565Z,13.98
2019-05-01T06:07:05.801Z,14.08
2019-05-01T06:09:44.506Z,14.19
2019-05-01T06:12:22.161Z,14.18
2019-05-01T06:14:56.272Z,14.22
2019-05-01T06:17:35.016Z,14.08
2019-05-01T06:20:12.914Z,14.10
2019-05-01T06:23:04.945Z,14.16
2019-05-01T06:25:40.139Z,14.23
2019-05-01T06:28:11.787Z,14.25
2019-05-01T06:30:47.049Z,14.17
2019-05-01T06:33:15.542Z,14.36
2019-05-01T06:35:46.384Z,14.47
2019-05-01T06:38:18.717Z,14.46
2019-05-01T06:40:52.944Z,14.56
2019-05-01T06:43:30.411Z,14.52
2019-05-01T06:46:09.457Z,14.49
2019-05-01T06:48:53.506Z,14.46
2019-05-01T06:51:35.711Z,14.63
2019-05-01T06:54:16.422Z,14.53
2019-05-01T06:56:49.913Z,14.67
2019-05-01T06:59:26.137Z,14.49
2019-05-01T07:02:02.375Z,14.51
2019-05-01T07:04:44.860Z,14.57
2019-05-01T07:07:25.246Z,14.61
2019-05-01T07:09:53.335Z,14.62
2019-05-01T07:12:31.870Z,14.81
2019-05-01T07:15:10.061Z,14.84
2019-05-01T07:17:53.539Z,14.79
2019-05-01T07:20:38.477Z,14.81
2019-05-01T07:23:19.198Z,14.74
2019-05-01T07:25:55.591Z,15.02
2019-05-01T07:28:33.583Z,15.22
2019-05-01T07:31:04.991Z,15.46
2019-05-01T07:33:34.967Z,15.75
2019-05-01T07:36:15.012Z,15.58
2019-05-01T07:38:40.541Z,15.62
2019-05-01T07:41:12.464Z,15.85
2019-05-01T07:43:45.254Z,15.88
2019-05-01T07:46:30.313Z,15.52
2019-05-01T07:49:02.176Z,15.93
2019-05-01T07:51:33.139Z,16.12
2019-05-01T07:54:08.521Z,16.50
2019-05-01T07:56:37.588Z,16.26
2019-05-01T07:59:08.575Z,16.20
2019-05-01T08:01:42.711Z,16.43
2019-05-01T08:04:19.752Z,16.55
2019-05-01T08:06:47.512Z,16.76
2019-05-01T08:09:20.062Z,17.19
2019-05-01T08:11:58.028Z,17.03
2019-05-01T08:14:31.621Z,17.24
2019-05-01T08:17:02.684Z,17.52
2019-05-01T08:19:39.505Z,17.65
2019-05-01T08:22:09.035Z,18.11
2019-05-01T08:24:40.056Z,18.22
2019-05-01T08:27:15.666Z,18.19
2019-05-01T08:29:53.232Z,18.48
2019-05-01T08:32:40.907Z,18.55
2019-05-01T08:35:12.815Z,18.96
2019-05-01T08:37:43.792Z,19.15
2019-05-01T08:40:15.880Z,19.74
2019-05-01T08:42:47.449Z,20.38
2019-05-01T08:45:23.112Z,20.05
2019-05-01T08:48:10.638Z,19.84
2019-05-01T08:50:41.638Z,19.98
2019-05-01T08:53:12.762Z,20.65
2019-05-01T08:55:45.005Z,20.01
2019-05-01T08:58:16.004Z,20.40
2019-05-01T09:00:47.166Z,20.74
2019-05-01T09:03:18.870Z,20.70
2019-05-01T09:05:52.138Z,20.85
2019-05-01T09:08:22.701Z,20.58
2019-05-01T09:10:54.819Z,20.90
2019-05-01T09:13:29.425Z,20.92
2019-05-01T09:16:00.689Z,21.26
2019-05-01T09:18:31.735Z,20.91
2019-05-01T09:21:02.711Z,20.95
2019-05-01T09:23:34.635Z,21.31
2019-05-01T09:26:22.730Z,21.41
2019-05-01T09:28:55.222Z,21.10
2019-05-01T09:31:33.994Z,21.18
2019-05-01T09:34:03.361Z,21.85
2019-05-01T09:36:34.216Z,21.95
2019-05-01T09:39:07.340Z,21.20
2019-05-01T09:41:38.871Z,21.62
2019-05-01T09:44:12.010Z,21.71
2019-05-01T09:46:42.651Z,21.21
2019-05-01T09:49:17.767Z,21.06
2019-05-01T09:52:05.350Z,21.80
2019-05-01T09:54:46.701Z,21.47
2019-05-01T09:57:30.160Z,21.82
2019-05-01T10:00:07.575Z,21.93
2019-05-01T10:58:29.994Z,22.18
2019-05-01T11:01:02.575Z,22.14
2019-05-01T11:03:33.426Z,22.33
2019-05-01T11:06:04.409Z,21.95
2019-05-01T11:08:35.668Z,22.52
2019-05-01T11:11:06.728Z,21.72
2019-05-01T11:13:37.792Z,21.89
2019-05-01T11:16:08.857Z,21.82
2019-05-01T11:18:40.047Z,22.27
2019-05-01T11:21:10.875Z,21.68
2019-05-01T11:23:41.729Z,22.32
2019-05-01T11:26:12.886Z,21.86
2019-05-01T11:28:44.049Z,21.73
2019-05-01T11:31:16.645Z,21.76
2019-05-01T11:33:58.226Z,21.66
2019-05-01T11:36:48.731Z,21.53
2019-05-01T11:39:24.096Z,21.53
2019-05-01T11:42:15.918Z,21.67
2019-05-01T11:44:47.085Z,21.67
2019-05-01T11:47:17.931Z,21.54
2019-05-01T11:49:50.360Z,21.43
2019-05-01T11:52:25.646Z,21.76
2019-05-01T11:54:59.915Z,21.98
2019-05-01T11:57:33.067Z,22.52
2019-05-01T12:00:16.163Z,22.92
2019-05-01T12:03:00.587Z,23.09
2019-05-01T12:05:39.860Z,22.71
2019-05-01T12:08:18.575Z,23.22
2019-05-01T12:10:59.180Z,23.23
2019-05-01T12:13:43.298Z,22.05
2019-05-01T12:16:06.796Z,22.35
2019-05-01T12:18:38.059Z,21.88
2019-05-01T12:21:08.713Z,21.93
2019-05-01T12:23:39.663Z,22.70
2019-05-01T12:26:10.832Z,22.65
2019-05-01T12:28:41.688Z,23.10
2019-05-01T12:31:12.731Z,22.55
2019-05-01T12:33:43.606Z,22.41
2019-05-01T12:36:14.665Z,22.23
2019-05-01T12:38:45.418Z,22.09
2019-05-01T12:41:27.117Z,22.12
2019-05-01T12:43:58.058Z,22.01
2019-05-01T12:46:36.296Z,22.10
2019-05-01T12:49:08.479Z,21.89
2019-05-01T12:51:40.461Z,21.81
2019-05-01T12:54:18.782Z,21.90
2019-05-01T12:56:59.356Z,22.04
2019-05-01T12:59:30.518Z,22.15
2019-05-01T13:02:01.376Z,22.37
2019-05-01T13:04:32.520Z,22.47
2019-05-01T13:07:03.701Z,22.52
2019-05-01T13:09:34.851Z,22.11
2019-05-01T13:12:06.845Z,22.01
2019-05-01T13:14:37.581Z,22.16
2019-05-01T13:17:08.460Z,22.26
2019-05-01T13:19:39.313Z,21.85
2019-05-01T13:22:10.270Z,22.10
2019-05-01T13:24:50.227Z,22.77
2019-05-01T13:27:31.616Z,22.90
2019-05-01T13:30:09.921Z,23.51
2019-05-01T13:32:42.315Z,23.47
2019-05-01T13:35:13.596Z,22.84
2019-05-01T13:37:44.657Z,23.06
2019-05-01T13:40:17.135Z,23.34
2019-05-01T13:42:47.901Z,22.94
2019-05-01T13:45:18.962Z,22.62
2019-05-01T13:47:49.822Z,22.34
2019-05-01T13:50:21.086Z,22.50
2019-05-01T13:52:52.042Z,23.04
2019-05-01T13:55:23.206Z,22.82
2019-05-01T13:57:54.350Z,22.46
2019-05-01T14:00:26.774Z,22.02
2019-05-01T14:02:57.413Z,21.68
2019-05-01T14:05:28.559Z,22.28
2019-05-01T14:07:59.327Z,22.38
2019-05-01T14:10:30.268Z,22.65
2019-05-01T14:13:01.330Z,22.66
2019-05-01T14:15:32.184Z,22.69
2019-05-01T14:18:03.369Z,23.00
2019-05-01T14:20:52.513Z,22.49
2019-05-01T14:23:27.764Z,22.58
2019-05-01T14:26:06.294Z,22.80
2019-05-01T14:28:38.659Z,22.34
2019-05-01T14:31:09.357Z,22.55
2019-05-01T14:33:40.192Z,22.30
2019-05-01T14:36:11.168Z,22.11
2019-05-01T14:38:42.022Z,22.59
2019-05-01T14:41:12.865Z,22.80
2019-05-01T14:43:43.819Z,23.53
2019-05-01T14:46:14.797Z,23.51
2019-05-01T14:48:45.548Z,24.67
2019-05-01T14:51:16.506Z,25.00
2019-05-01T14:53:47.363Z,25.52
2019-05-01T14:56:18.217Z,25.03
2019-05-01T14:58:49.176Z,24.94
2019-05-01T15:01:20.139Z,23.82
2019-05-01T15:03:50.975Z,24.57
2019-05-01T15:06:22.159Z,24.58
2019-05-01T15:08:53.198Z,24.26
2019-05-01T15:11:24.054Z,24.30
2019-05-01T15:14:12.909Z,24.42
2019-05-01T15:16:45.300Z,24.19
2019-05-01T15:19:17.767Z,23.70
2019-05-01T15:21:48.563Z,23.38
2019-05-01T15:24:19.521Z,22.23
2019-05-01T15:26:50.386Z,21.54
2019-05-01T15:29:21.338Z,21.13
2019-05-01T15:31:58.535Z,20.85
2019-05-01T15:34:29.681Z,20.61
2019-05-01T15:37:00.451Z,20.53
2019-05-01T15:39:33.235Z,20.43
2019-05-01T15:42:24.151Z,20.26
2019-05-01T15:44:55.011Z,20.25
2019-05-01T15:47:25.949Z,20.45
2019-05-01T15:49:56.713Z,22.08
2019-05-01T15:52:27.766Z,22.78
2019-05-01T15:54:58.967Z,23.60
2019-05-01T15:57:29.800Z,22.34
2019-05-01T16:00:00.657Z,21.47
2019-05-01T16:02:31.615Z,21.09
2019-05-01T16:05:02.471Z,20.79
2019-05-01T16:07:33.326Z,20.79
2019-05-01T16:10:08.768Z,20.55
2019-05-01T16:12:43.921Z,20.45
2019-05-01T16:15:25.428Z,20.17
2019-05-01T16:17:56.288Z,19.78
2019-05-01T16:20:27.244Z,19.54
2019-05-01T16:22:57.979Z,19.32
2019-05-01T16:25:28.958Z,19.14
2019-05-01T16:27:59.927Z,18.97
2019-05-01T16:30:30.796Z,18.87
2019-05-01T16:33:05.320Z,18.62
2019-05-01T16:35:36.252Z,18.61
2019-05-01T16:38:08.656Z,18.54
2019-05-01T16:40:41.252Z,18.48
2019-05-01T16:43:12.722Z,18.51
2019-05-01T16:45:43.885Z,18.42
2019-05-01T16:48:15.456Z,18.41
2019-05-01T16:50:46.415Z,18.30
2019-05-01T16:53:17.152Z,18.28
2019-05-01T16:55:48.109Z,18.22
2019-05-01T16:58:19.397Z,18.24
2019-05-01T17:01:02.930Z,18.14
2019-05-01T17:03:44.509Z,18.06
2019-05-01T17:06:17.030Z,17.94
2019-05-01T17:08:52.569Z,17.80
2019-05-01T17:11:28.736Z,17.73
2019-05-01T17:14:00.312Z,17.48
2019-05-01T17:16:31.286Z,17.65
2019-05-01T17:19:02.346Z,17.54
2019-05-01T17:21:33.200Z,17.48
2019-05-01T17:24:04.141Z,17.34
2019-05-01T17:26:35.015Z,17.34
2019-05-01T17:29:05.771Z,17.23
2019-05-01T17:31:36.606Z,17.13
2019-05-01T17:34:09.706Z,17.09
2019-05-01T17:36:39.976Z,17.04
2019-05-01T17:39:12.162Z,16.96
2019-05-01T17:41:42.929Z,16.85
2019-05-01T17:44:13.975Z,16.86
2019-05-01T17:46:53.389Z,16.75
2019-05-01T17:49:33.204Z,16.79
2019-05-01T17:52:06.181Z,16.79
2019-05-01T17:54:37.242Z,16.64
2019-05-01T17:57:08.201Z,16.65
2019-05-01T17:59:39.059Z,16.68
2019-05-01T18:02:24.845Z,16.65
2019-05-01T18:04:57.232Z,16.73
2019-05-01T18:07:33.143Z,16.74
2019-05-01T18:10:01.914Z,16.68
2019-05-01T18:12:32.666Z,16.59
2019-05-01T18:15:04.119Z,16.55
2019-05-01T18:17:34.564Z,16.46
2019-05-01T18:20:07.284Z,16.42
2019-05-01T18:22:39.671Z,16.34
2019-05-01T18:25:33.184Z,16.18
2019-05-01T18:28:06.138Z,16.16
2019-05-01T18:30:38.507Z,16.08
2019-05-01T18:33:09.482Z,16.04
2019-05-01T18:35:40.011Z,16.04
2019-05-01T18:38:21.407Z,15.86
2019-05-01T18:40:59.846Z,15.86
2019-05-01T18:43:32.154Z,15.76
2019-05-01T18:46:03.706Z,15.74
2019-05-01T18:48:34.561Z,15.70
2019-05-01T18:51:06.222Z,15.55
2019-05-01T18:53:36.972Z,15.58
2019-05-01T18:56:07.954Z,15.52
2019-05-01T18:58:38.809Z,15.45
2019-05-01T19:01:10.819Z,15.46
2019-05-01T19:03:42.300Z,15.41
2019-05-01T19:06:13.420Z,15.35
2019-05-01T19:08:44.154Z,15.35
2019-05-01T19:11:15.717Z,15.23
2019-05-01T19:13:46.307Z,15.24
2019-05-01T19:16:17.151Z,15.20
2019-05-01T19:18:47.906Z,15.15
2019-05-01T19:21:20.563Z,15.08
2019-05-01T19:23:52.820Z,15.07
2019-05-01T19:26:23.932Z,14.98
2019-05-01T19:28:54.815Z,14.99
2019-05-01T19:31:25.866Z,14.94
2019-05-01T19:33:56.441Z,14.95
2019-05-01T19:36:27.051Z,14.96
2019-05-01T19:38:58.043Z,14.99
2019-05-01T19:41:30.965Z,14.97
2019-05-01T19:44:01.476Z,14.97
2019-05-01T19:46:32.333Z,14.92
2019-05-01T19:49:03.419Z,14.94
2019-05-01T19:51:35.079Z,14.97
2019-05-01T19:54:06.045Z,14.98
2019-05-01T19:56:36.990Z,14.97
2019-05-01T19:59:07.925Z,14.95
2019-05-01T20:01:44.633Z,14.88
2019-05-01T20:04:13.218Z,14.88
2019-05-01T20:06:43.713Z,14.85
2019-05-01T20:09:14.726Z,14.82
2019-05-01T20:11:45.396Z,14.83
2019-05-01T20:14:17.358Z,14.79
2019-05-01T20:16:50.989Z,14.77
2019-05-01T20:19:21.627Z,14.72
2019-05-01T20:21:54.144Z,14.75
2019-05-01T20:24:24.872Z,14.71
2019-05-01T20:26:57.586Z,14.69
2019-05-01T20:29:31.514Z,14.75
2019-05-01T20:32:03.289Z,14.65
2019-05-01T20:34:34.059Z,14.64
2019-05-01T20:37:04.780Z,14.64
2019-05-01T20:39:35.962Z,14.60
2019-05-01T20:42:07.112Z,14.62
2019-05-01T20:44:37.771Z,14.50
2019-05-01T20:47:08.507Z,14.50
2019-05-01T20:49:41.323Z,14.51
2019-05-01T20:52:12.487Z,14.51
2019-05-01T20:54:43.230Z,14.55
2019-05-01T20:57:20.759Z,14.56
2019-05-01T20:59:48.344Z,14.55
2019-05-01T21:02:19.169Z,14.49
2019-05-01T21:04:52.082Z,14.48
2019-05-01T21:07:29.985Z,14.49
2019-05-01T21:10:02.281Z,14.46
2019-05-01T21:12:33.329Z,14.43
2019-05-01T21:15:07.628Z,14.39
2019-05-01T21:17:44.267Z,14.31
2019-05-01T21:20:13.522Z,14.24
2019-05-01T21:22:44.037Z,14.25
2019-05-01T21:25:14.787Z,14.12
2019-05-01T21:27:45.541Z,14.14
2019-05-01T21:30:16.381Z,14.13
2019-05-01T21:32:47.269Z,13.98
2019-05-01T21:35:18.008Z,13.97
2019-05-01T21:37:48.968Z,13.97
2019-05-01T21:40:19.398Z,14.02
2019-05-01T21:42:54.327Z,14.01
2019-05-01T21:45:23.579Z,13.95
2019-05-01T21:47:55.663Z,13.96
2019-05-01T21:50:27.850Z,13.91
2019-05-01T21:53:03.316Z,13.89
2019-05-01T21:55:32.122Z,13.78
2019-05-01T21:58:05.031Z,13.77
2019-05-01T22:00:39.644Z,13.74
2019-05-01T22:03:10.806Z,13.68
2019-05-01T22:05:41.882Z,13.61
2019-05-01T22:08:12.737Z,13.59
2019-05-01T22:10:51.766Z,13.67
2019-05-01T22:13:20.351Z,13.57
2019-05-01T22:15:53.368Z,13.58
2019-05-01T22:18:31.710Z,13.58
2019-05-01T22:21:03.983Z,13.57
2019-05-01T22:23:52.444Z,13.60
2019-05-01T22:26:23.483Z,13.53
2019-05-01T22:28:56.121Z,13.46
2019-05-01T22:31:44.839Z,13.38
2019-05-01T22:34:32.160Z,13.23
2019-05-01T22:37:03.016Z,13.29
2019-05-01T22:39:34.792Z,13.36
2019-05-01T22:42:05.343Z,13.32
2019-05-01T22:44:35.106Z,13.36
2019-05-01T22:47:10.164Z,13.29
2019-05-01T22:49:38.836Z,13.31
2019-05-01T22:52:09.599Z,13.26
2019-05-01T22:54:40.338Z,13.26
2019-05-01T22:57:11.193Z,13.25
2019-05-01T22:59:41.949Z,13.15
2019-05-01T23:02:28.480Z,13.13
2019-05-01T23:04:58.590Z,13.01
2019-05-01T23:07:29.468Z,13.04
2019-05-01T23:10:03.199Z,12.94
2019-05-01T23:12:32.711Z,12.95
2019-05-01T23:15:06.123Z,12.96
2019-05-01T23:17:41.683Z,12.93
2019-05-01T23:20:12.643Z,12.89
2019-05-01T23:22:43.378Z,12.84
2019-05-01T23:25:14.971Z,12.77
2019-05-01T23:27:45.831Z,12.76
2019-05-01T23:30:19.137Z,12.80
2019-05-01T23:32:49.992Z,12.81
2019-05-01T23:35:20.727Z,12.84
2019-05-01T23:37:51.501Z,12.89
2019-05-01T23:40:22.361Z,12.91
2019-05-01T23:42:53.955Z,12.93
2019-05-01T23:45:24.580Z,12.89
2019-05-01T23:47:55.434Z,12.80
2019-05-01T23:50:26.187Z,12.80
2019-05-01T23:52:56.923Z,12.76
2019-05-01T23:55:27.797Z,12.72
2019-05-01T23:57:58.656Z,12.66
